sensor_id;sensor_type;location;lat;lon;timestamp;temperature;humidity
66726;HTU21D;53638;51.062;5.804;2023-07-29T00:00:57;21.06;118.99
66726;HTU21D;53638;51.062;5.804;2023-07-29T00:03:23;21.00;118.99
66726;HTU21D;53638;51.062;5.804;2023-07-29T00:05:49;20.98;118.99
66726;HTU21D;53638;51.062;5.804;2023-07-29T00:08:15;21.00;118.99
66726;HTU21D;53638;51.062;5.804;2023-07-29T00:10:41;21.06;118.99
66726;HTU21D;53638;51.062;5.804;2023-07-29T00:13:07;21.16;118.99
66726;HTU21D;53638;51.062;5.804;2023-07-29T00:15:33;21.21;118.99
66726;HTU21D;53638;51.062;5.804;2023-07-29T00:17:59;21.22;118.99
66726;HTU21D;53638;51.062;5.804;2023-07-29T00:20:24;21.25;118.99
66726;HTU21D;53638;51.062;5.804;2023-07-29T00:22:50;21.25;118.99
66726;HTU21D;53638;51.062;5.804;2023-07-29T00:25:19;21.21;118.99
66726;HTU21D;53638;51.062;5.804;2023-07-29T00:27:45;21.14;118.99
66726;HTU21D;53638;51.062;5.804;2023-07-29T00:30:11;21.05;118.99
66726;HTU21D;53638;51.062;5.804;2023-07-29T00:32:37;21.06;118.99
66726;HTU21D;53638;51.062;5.804;2023-07-29T00:35:03;21.10;118.99
66726;HTU21D;53638;51.062;5.804;2023-07-29T00:37:30;21.15;118.99
66726;HTU21D;53638;51.062;5.804;2023-07-29T00:39:57;21.19;118.99
66726;HTU21D;53638;51.062;5.804;2023-07-29T00:42:24;21.22;118.99
66726;HTU21D;53638;51.062;5.804;2023-07-29T00:44:50;21.24;118.99
66726;HTU21D;53638;51.062;5.804;2023-07-29T00:47:16;21.28;118.99
66726;HTU21D;53638;51.062;5.804;2023-07-29T00:49:43;21.32;118.99
66726;HTU21D;53638;51.062;5.804;2023-07-29T00:52:10;21.34;118.99
66726;HTU21D;53638;51.062;5.804;2023-07-29T00:54:39;21.37;118.99
66726;HTU21D;53638;51.062;5.804;2023-07-29T00:57:08;21.37;118.99
66726;HTU21D;53638;51.062;5.804;2023-07-29T00:59:35;21.35;118.99
66726;HTU21D;53638;51.062;5.804;2023-07-29T01:02:02;21.32;118.99
66726;HTU21D;53638;51.062;5.804;2023-07-29T01:04:31;21.31;118.99
66726;HTU21D;53638;51.062;5.804;2023-07-29T01:07:21;21.29;118.99
66726;HTU21D;53638;51.062;5.804;2023-07-29T01:10:02;21.28;118.99
66726;HTU21D;53638;51.062;5.804;2023-07-29T01:12:54;21.27;118.99
66726;HTU21D;53638;51.062;5.804;2023-07-29T01:15:26;21.28;118.99
66726;HTU21D;53638;51.062;5.804;2023-07-29T01:18:01;21.28;118.99
66726;HTU21D;53638;51.062;5.804;2023-07-29T01:20:33;21.28;118.99
66726;HTU21D;53638;51.062;5.804;2023-07-29T01:23:01;21.30;118.99
66726;HTU21D;53638;51.062;5.804;2023-07-29T01:25:27;21.31;118.99
66726;HTU21D;53638;51.062;5.804;2023-07-29T01:27:54;21.31;118.99
66726;HTU21D;53638;51.062;5.804;2023-07-29T01:30:28;21.28;118.99
66726;HTU21D;53638;51.062;5.804;2023-07-29T01:33:12;21.28;118.99
66726;HTU21D;53638;51.062;5.804;2023-07-29T01:35:46;21.28;118.99
66726;HTU21D;53638;51.062;5.804;2023-07-29T01:38:18;21.29;118.99
66726;HTU21D;53638;51.062;5.804;2023-07-29T01:40:48;21.31;118.99
66726;HTU21D;53638;51.062;5.804;2023-07-29T01:43:16;21.30;118.99
66726;HTU21D;53638;51.062;5.804;2023-07-29T01:45:44;21.29;118.99
66726;HTU21D;53638;51.062;5.804;2023-07-29T01:48:10;21.27;118.99
66726;HTU21D;53638;51.062;5.804;2023-07-29T01:50:37;21.23;118.99
66726;HTU21D;53638;51.062;5.804;2023-07-29T01:53:03;21.16;118.99
66726;HTU21D;53638;51.062;5.804;2023-07-29T01:55:29;21.14;118.99
66726;HTU21D;53638;51.062;5.804;2023-07-29T01:57:55;21.15;118.99
66726;HTU21D;53638;51.062;5.804;2023-07-29T02:00:22;21.16;118.99
66726;HTU21D;53638;51.062;5.804;2023-07-29T02:02:48;21.18;118.99
66726;HTU21D;53638;51.062;5.804;2023-07-29T02:05:14;21.15;118.99
66726;HTU21D;53638;51.062;5.804;2023-07-29T02:07:40;21.14;118.99
66726;HTU21D;53638;51.062;5.804;2023-07-29T02:10:07;21.10;118.99
66726;HTU21D;53638;51.062;5.804;2023-07-29T02:12:33;21.05;118.99
66726;HTU21D;53638;51.062;5.804;2023-07-29T02:15:00;21.01;118.99
66726;HTU21D;53638;51.062;5.804;2023-07-29T02:17:26;20.89;118.99
66726;HTU21D;53638;51.062;5.804;2023-07-29T02:19:52;20.80;118.99
66726;HTU21D;53638;51.062;5.804;2023-07-29T02:22:18;20.76;118.99
66726;HTU21D;53638;51.062;5.804;2023-07-29T02:24:44;20.74;118.99
66726;HTU21D;53638;51.062;5.804;2023-07-29T02:27:11;20.73;118.99
66726;HTU21D;53638;51.062;5.804;2023-07-29T02:29:37;20.77;118.99
66726;HTU21D;53638;51.062;5.804;2023-07-29T02:32:03;20.79;118.99
66726;HTU21D;53638;51.062;5.804;2023-07-29T02:34:30;20.84;118.99
66726;HTU21D;53638;51.062;5.804;2023-07-29T02:36:56;20.81;118.99
66726;HTU21D;53638;51.062;5.804;2023-07-29T02:39:22;20.79;118.99
66726;HTU21D;53638;51.062;5.804;2023-07-29T02:41:49;20.75;118.99
66726;HTU21D;53638;51.062;5.804;2023-07-29T02:44:15;20.74;118.99
66726;HTU21D;53638;51.062;5.804;2023-07-29T02:46:41;20.75;118.99
66726;HTU21D;53638;51.062;5.804;2023-07-29T02:49:07;20.72;118.99
66726;HTU21D;53638;51.062;5.804;2023-07-29T02:51:33;20.69;118.99
66726;HTU21D;53638;51.062;5.804;2023-07-29T02:53:59;20.64;118.99
66726;HTU21D;53638;51.062;5.804;2023-07-29T02:56:25;20.62;118.99
66726;HTU21D;53638;51.062;5.804;2023-07-29T02:58:51;20.63;118.99
66726;HTU21D;53638;51.062;5.804;2023-07-29T03:01:17;20.63;118.99
66726;HTU21D;53638;51.062;5.804;2023-07-29T03:03:43;20.62;118.99
66726;HTU21D;53638;51.062;5.804;2023-07-29T03:06:14;20.57;118.99
66726;HTU21D;53638;51.062;5.804;2023-07-29T03:08:41;20.53;118.99
66726;HTU21D;53638;51.062;5.804;2023-07-29T03:11:09;20.45;118.99
66726;HTU21D;53638;51.062;5.804;2023-07-29T03:13:36;20.34;118.99
66726;HTU21D;53638;51.062;5.804;2023-07-29T03:16:10;20.27;118.99
66726;HTU21D;53638;51.062;5.804;2023-07-29T03:18:38;20.18;118.99
66726;HTU21D;53638;51.062;5.804;2023-07-29T03:21:04;20.10;118.99
66726;HTU21D;53638;51.062;5.804;2023-07-29T03:23:31;19.98;118.99
66726;HTU21D;53638;51.062;5.804;2023-07-29T03:25:59;19.88;118.99
66726;HTU21D;53638;51.062;5.804;2023-07-29T03:28:28;19.80;118.99
66726;HTU21D;53638;51.062;5.804;2023-07-29T03:30:55;19.74;118.99
66726;HTU21D;53638;51.062;5.804;2023-07-29T03:33:21;19.73;118.99
66726;HTU21D;53638;51.062;5.804;2023-07-29T03:35:48;19.72;118.99
66726;HTU21D;53638;51.062;5.804;2023-07-29T03:38:14;19.66;118.99
66726;HTU21D;53638;51.062;5.804;2023-07-29T03:40:41;19.60;118.99
66726;HTU21D;53638;51.062;5.804;2023-07-29T03:43:07;19.53;118.99
66726;HTU21D;53638;51.062;5.804;2023-07-29T03:45:35;19.47;118.99
66726;HTU21D;53638;51.062;5.804;2023-07-29T03:48:02;19.43;118.99
66726;HTU21D;53638;51.062;5.804;2023-07-29T03:50:29;19.40;118.99
66726;HTU21D;53638;51.062;5.804;2023-07-29T03:52:56;19.37;118.99
66726;HTU21D;53638;51.062;5.804;2023-07-29T03:55:22;19.37;118.99
66726;HTU21D;53638;51.062;5.804;2023-07-29T03:57:48;19.38;118.99
66726;HTU21D;53638;51.062;5.804;2023-07-29T04:00:14;19.39;118.99
66726;HTU21D;53638;51.062;5.804;2023-07-29T04:02:42;19.39;118.99
66726;HTU21D;53638;51.062;5.804;2023-07-29T04:05:09;19.40;118.99
66726;HTU21D;53638;51.062;5.804;2023-07-29T04:07:36;19.38;118.99
66726;HTU21D;53638;51.062;5.804;2023-07-29T04:10:03;19.38;118.99
66726;HTU21D;53638;51.062;5.804;2023-07-29T04:12:30;19.39;118.99
66726;HTU21D;53638;51.062;5.804;2023-07-29T04:14:56;19.45;118.99
66726;HTU21D;53638;51.062;5.804;2023-07-29T04:17:22;19.50;118.99
66726;HTU21D;53638;51.062;5.804;2023-07-29T04:19:47;19.51;118.99
66726;HTU21D;53638;51.062;5.804;2023-07-29T04:22:15;19.51;118.99
66726;HTU21D;53638;51.062;5.804;2023-07-29T04:24:41;19.54;118.99
66726;HTU21D;53638;51.062;5.804;2023-07-29T04:27:07;19.56;118.99
66726;HTU21D;53638;51.062;5.804;2023-07-29T04:29:33;19.59;118.99
66726;HTU21D;53638;51.062;5.804;2023-07-29T04:32:02;19.61;118.99
66726;HTU21D;53638;51.062;5.804;2023-07-29T04:34:28;19.63;118.99
66726;HTU21D;53638;51.062;5.804;2023-07-29T04:36:54;19.67;118.99
66726;HTU21D;53638;51.062;5.804;2023-07-29T04:39:20;19.70;118.99
66726;HTU21D;53638;51.062;5.804;2023-07-29T04:41:46;19.70;118.99
66726;HTU21D;53638;51.062;5.804;2023-07-29T04:44:13;19.70;118.99
66726;HTU21D;53638;51.062;5.804;2023-07-29T04:46:40;19.67;118.99
66726;HTU21D;53638;51.062;5.804;2023-07-29T04:49:06;19.66;118.99
66726;HTU21D;53638;51.062;5.804;2023-07-29T04:51:32;19.61;118.99
66726;HTU21D;53638;51.062;5.804;2023-07-29T04:53:58;19.63;118.99
66726;HTU21D;53638;51.062;5.804;2023-07-29T04:56:24;19.68;118.99
66726;HTU21D;53638;51.062;5.804;2023-07-29T04:58:51;19.72;118.99
66726;HTU21D;53638;51.062;5.804;2023-07-29T05:01:17;19.76;118.99
66726;HTU21D;53638;51.062;5.804;2023-07-29T05:03:42;19.77;118.99
66726;HTU21D;53638;51.062;5.804;2023-07-29T05:06:08;19.75;118.99
66726;HTU21D;53638;51.062;5.804;2023-07-29T05:08:35;19.77;118.99
66726;HTU21D;53638;51.062;5.804;2023-07-29T05:11:00;19.74;118.99
66726;HTU21D;53638;51.062;5.804;2023-07-29T05:13:26;19.74;118.99
66726;HTU21D;53638;51.062;5.804;2023-07-29T05:15:52;19.71;118.99
66726;HTU21D;53638;51.062;5.804;2023-07-29T05:18:18;19.71;118.99
66726;HTU21D;53638;51.062;5.804;2023-07-29T05:20:44;19.72;118.99
66726;HTU21D;53638;51.062;5.804;2023-07-29T05:23:10;19.69;118.99
66726;HTU21D;53638;51.062;5.804;2023-07-29T05:25:36;19.63;118.99
66726;HTU21D;53638;51.062;5.804;2023-07-29T05:28:03;19.58;118.99
66726;HTU21D;53638;51.062;5.804;2023-07-29T05:30:29;19.55;118.99
66726;HTU21D;53638;51.062;5.804;2023-07-29T05:32:57;19.52;118.99
66726;HTU21D;53638;51.062;5.804;2023-07-29T05:35:24;19.50;118.99
66726;HTU21D;53638;51.062;5.804;2023-07-29T05:37:50;19.48;118.99
66726;HTU21D;53638;51.062;5.804;2023-07-29T05:40:16;19.51;118.99
66726;HTU21D;53638;51.062;5.804;2023-07-29T05:42:42;19.55;118.99
66726;HTU21D;53638;51.062;5.804;2023-07-29T05:45:09;19.54;118.99
66726;HTU21D;53638;51.062;5.804;2023-07-29T05:47:36;19.55;118.99
66726;HTU21D;53638;51.062;5.804;2023-07-29T05:50:03;19.60;118.99
66726;HTU21D;53638;51.062;5.804;2023-07-29T05:52:31;19.71;118.99
66726;HTU21D;53638;51.062;5.804;2023-07-29T05:54:57;19.87;118.99
66726;HTU21D;53638;51.062;5.804;2023-07-29T05:57:23;20.02;118.99
66726;HTU21D;53638;51.062;5.804;2023-07-29T05:59:49;20.12;118.99
66726;HTU21D;53638;51.062;5.804;2023-07-29T06:02:15;20.19;118.99
66726;HTU21D;53638;51.062;5.804;2023-07-29T06:04:41;20.16;118.99
66726;HTU21D;53638;51.062;5.804;2023-07-29T06:07:07;20.14;118.99
66726;HTU21D;53638;51.062;5.804;2023-07-29T06:09:34;20.16;118.99
66726;HTU21D;53638;51.062;5.804;2023-07-29T06:11:59;20.22;118.99
66726;HTU21D;53638;51.062;5.804;2023-07-29T06:14:26;20.20;118.99
66726;HTU21D;53638;51.062;5.804;2023-07-29T06:16:52;20.21;118.99
66726;HTU21D;53638;51.062;5.804;2023-07-29T06:19:20;20.21;118.99
66726;HTU21D;53638;51.062;5.804;2023-07-29T06:21:46;20.24;118.99
66726;HTU21D;53638;51.062;5.804;2023-07-29T06:24:12;20.25;118.99
66726;HTU21D;53638;51.062;5.804;2023-07-29T06:26:38;20.31;118.99
66726;HTU21D;53638;51.062;5.804;2023-07-29T06:29:04;20.35;118.99
66726;HTU21D;53638;51.062;5.804;2023-07-29T06:31:30;20.40;118.99
66726;HTU21D;53638;51.062;5.804;2023-07-29T06:33:58;20.37;118.99
66726;HTU21D;53638;51.062;5.804;2023-07-29T06:36:24;20.30;118.99
66726;HTU21D;53638;51.062;5.804;2023-07-29T06:38:50;20.21;118.99
66726;HTU21D;53638;51.062;5.804;2023-07-29T06:41:16;20.15;118.99
66726;HTU21D;53638;51.062;5.804;2023-07-29T06:43:42;20.06;118.99
66726;HTU21D;53638;51.062;5.804;2023-07-29T06:46:08;20.00;118.99
66726;HTU21D;53638;51.062;5.804;2023-07-29T06:48:34;19.98;118.99
66726;HTU21D;53638;51.062;5.804;2023-07-29T06:51:00;19.97;118.99
66726;HTU21D;53638;51.062;5.804;2023-07-29T06:53:28;20.00;118.99
66726;HTU21D;53638;51.062;5.804;2023-07-29T06:55:54;20.05;118.99
66726;HTU21D;53638;51.062;5.804;2023-07-29T06:58:20;20.10;118.99
66726;HTU21D;53638;51.062;5.804;2023-07-29T07:00:46;20.16;118.99
66726;HTU21D;53638;51.062;5.804;2023-07-29T07:03:11;20.27;118.99
66726;HTU21D;53638;51.062;5.804;2023-07-29T07:05:37;20.39;118.99
66726;HTU21D;53638;51.062;5.804;2023-07-29T07:08:06;20.49;118.99
66726;HTU21D;53638;51.062;5.804;2023-07-29T07:10:35;20.51;118.99
66726;HTU21D;53638;51.062;5.804;2023-07-29T07:13:03;20.58;118.99
66726;HTU21D;53638;51.062;5.804;2023-07-29T07:15:32;20.68;118.99
66726;HTU21D;53638;51.062;5.804;2023-07-29T07:17:58;20.73;118.99
66726;HTU21D;53638;51.062;5.804;2023-07-29T07:20:24;20.76;118.99
66726;HTU21D;53638;51.062;5.804;2023-07-29T07:22:50;20.81;118.99
66726;HTU21D;53638;51.062;5.804;2023-07-29T07:25:16;20.87;118.99
66726;HTU21D;53638;51.062;5.804;2023-07-29T07:27:42;20.92;118.99
66726;HTU21D;53638;51.062;5.804;2023-07-29T07:30:08;21.02;118.99
66726;HTU21D;53638;51.062;5.804;2023-07-29T07:32:34;21.13;118.99
66726;HTU21D;53638;51.062;5.804;2023-07-29T07:35:00;21.23;118.99
66726;HTU21D;53638;51.062;5.804;2023-07-29T07:37:26;21.34;118.99
66726;HTU21D;53638;51.062;5.804;2023-07-29T07:39:52;21.28;118.99
66726;HTU21D;53638;51.062;5.804;2023-07-29T07:42:17;21.24;118.99
66726;HTU21D;53638;51.062;5.804;2023-07-29T07:44:43;21.33;118.99
66726;HTU21D;53638;51.062;5.804;2023-07-29T07:47:09;21.43;118.99
66726;HTU21D;53638;51.062;5.804;2023-07-29T07:49:35;21.50;118.99
66726;HTU21D;53638;51.062;5.804;2023-07-29T07:52:01;21.62;118.99
66726;HTU21D;53638;51.062;5.804;2023-07-29T07:54:27;21.83;118.99
66726;HTU21D;53638;51.062;5.804;2023-07-29T07:56:53;22.06;118.99
66726;HTU21D;53638;51.062;5.804;2023-07-29T07:59:18;22.19;118.99
66726;HTU21D;53638;51.062;5.804;2023-07-29T08:01:44;22.26;118.99
66726;HTU21D;53638;51.062;5.804;2023-07-29T08:04:10;22.29;118.99
66726;HTU21D;53638;51.062;5.804;2023-07-29T08:06:36;22.35;118.99
66726;HTU21D;53638;51.062;5.804;2023-07-29T08:09:02;22.34;118.99
66726;HTU21D;53638;51.062;5.804;2023-07-29T08:11:29;22.36;118.99
66726;HTU21D;53638;51.062;5.804;2023-07-29T08:13:54;22.42;118.99
66726;HTU21D;53638;51.062;5.804;2023-07-29T08:16:20;22.62;118.99
66726;HTU21D;53638;51.062;5.804;2023-07-29T08:18:46;22.82;118.99
66726;HTU21D;53638;51.062;5.804;2023-07-29T08:21:13;23.08;118.99
66726;HTU21D;53638;51.062;5.804;2023-07-29T08:23:39;23.27;118.99
66726;HTU21D;53638;51.062;5.804;2023-07-29T08:26:05;23.35;118.99
66726;HTU21D;53638;51.062;5.804;2023-07-29T08:28:33;23.44;118.99
66726;HTU21D;53638;51.062;5.804;2023-07-29T08:31:00;23.59;118.99
66726;HTU21D;53638;51.062;5.804;2023-07-29T08:33:27;23.68;118.99
66726;HTU21D;53638;51.062;5.804;2023-07-29T08:35:53;23.57;118.99
66726;HTU21D;53638;51.062;5.804;2023-07-29T08:38:20;23.50;118.99
66726;HTU21D;53638;51.062;5.804;2023-07-29T08:40:54;23.59;118.99
66726;HTU21D;53638;51.062;5.804;2023-07-29T08:43:29;23.69;118.99
66726;HTU21D;53638;51.062;5.804;2023-07-29T08:45:58;23.83;118.99
66726;HTU21D;53638;51.062;5.804;2023-07-29T08:48:41;23.97;118.99
66726;HTU21D;53638;51.062;5.804;2023-07-29T08:51:10;24.08;118.99
66726;HTU21D;53638;51.062;5.804;2023-07-29T08:53:37;24.21;118.99
66726;HTU21D;53638;51.062;5.804;2023-07-29T08:56:03;24.28;118.99
66726;HTU21D;53638;51.062;5.804;2023-07-29T08:58:31;24.27;118.99
66726;HTU21D;53638;51.062;5.804;2023-07-29T09:00:57;24.20;118.99
66726;HTU21D;53638;51.062;5.804;2023-07-29T09:03:23;24.19;118.99
66726;HTU21D;53638;51.062;5.804;2023-07-29T09:05:50;24.29;118.99
66726;HTU21D;53638;51.062;5.804;2023-07-29T09:08:17;24.65;118.99
66726;HTU21D;53638;51.062;5.804;2023-07-29T09:10:43;24.90;118.99
66726;HTU21D;53638;51.062;5.804;2023-07-29T09:13:09;24.86;118.99
66726;HTU21D;53638;51.062;5.804;2023-07-29T09:15:36;24.71;118.99
66726;HTU21D;53638;51.062;5.804;2023-07-29T09:18:11;24.61;118.99
66726;HTU21D;53638;51.062;5.804;2023-07-29T09:20:38;24.55;118.99
66726;HTU21D;53638;51.062;5.804;2023-07-29T09:23:08;24.39;118.99
66726;HTU21D;53638;51.062;5.804;2023-07-29T09:25:36;24.06;118.99
66726;HTU21D;53638;51.062;5.804;2023-07-29T09:28:09;23.80;118.99
66726;HTU21D;53638;51.062;5.804;2023-07-29T09:30:35;23.73;118.99
66726;HTU21D;53638;51.062;5.804;2023-07-29T09:33:01;23.99;118.99
66726;HTU21D;53638;51.062;5.804;2023-07-29T09:35:32;24.39;118.99
66726;HTU21D;53638;51.062;5.804;2023-07-29T09:37:59;24.80;118.99
66726;HTU21D;53638;51.062;5.804;2023-07-29T09:40:25;25.06;118.99
66726;HTU21D;53638;51.062;5.804;2023-07-29T09:42:53;25.19;118.99
66726;HTU21D;53638;51.062;5.804;2023-07-29T09:45:23;25.44;118.99
66726;HTU21D;53638;51.062;5.804;2023-07-29T09:47:50;25.76;118.99
66726;HTU21D;53638;51.062;5.804;2023-07-29T09:50:16;26.01;118.99
66726;HTU21D;53638;51.062;5.804;2023-07-29T09:52:43;26.10;118.99
66726;HTU21D;53638;51.062;5.804;2023-07-29T09:55:12;26.09;118.79
66726;HTU21D;53638;51.062;5.804;2023-07-29T09:57:40;25.94;116.57
66726;HTU21D;53638;51.062;5.804;2023-07-29T10:00:07;25.79;116.31
66726;HTU21D;53638;51.062;5.804;2023-07-29T10:02:40;25.59;116.47
66726;HTU21D;53638;51.062;5.804;2023-07-29T10:05:08;25.47;118.09
66726;HTU21D;53638;51.062;5.804;2023-07-29T10:07:38;25.51;118.99
66726;HTU21D;53638;51.062;5.804;2023-07-29T10:10:06;25.52;118.99
66726;HTU21D;53638;51.062;5.804;2023-07-29T10:12:33;25.34;117.89
66726;HTU21D;53638;51.062;5.804;2023-07-29T10:15:03;25.12;118.99
66726;HTU21D;53638;51.062;5.804;2023-07-29T10:17:33;25.25;118.99
66726;HTU21D;53638;51.062;5.804;2023-07-29T10:20:00;25.56;117.94
66726;HTU21D;53638;51.062;5.804;2023-07-29T10:22:39;25.87;116.16
66726;HTU21D;53638;51.062;5.804;2023-07-29T10:25:10;26.01;115.13
66726;HTU21D;53638;51.062;5.804;2023-07-29T10:27:48;26.25;113.20
66726;HTU21D;53638;51.062;5.804;2023-07-29T10:30:15;26.61;111.26
66726;HTU21D;53638;51.062;5.804;2023-07-29T10:32:43;27.15;108.11
66726;HTU21D;53638;51.062;5.804;2023-07-29T10:35:13;27.73;105.58
66726;HTU21D;53638;51.062;5.804;2023-07-29T10:37:40;27.88;102.12
66726;HTU21D;53638;51.062;5.804;2023-07-29T10:40:11;27.82;100.65
66726;HTU21D;53638;51.062;5.804;2023-07-29T10:42:38;27.78;98.16
66726;HTU21D;53638;51.062;5.804;2023-07-29T10:45:20;27.54;98.18
66726;HTU21D;53638;51.062;5.804;2023-07-29T10:47:47;27.23;99.13
66726;HTU21D;53638;51.062;5.804;2023-07-29T10:50:19;27.07;101.51
66726;HTU21D;53638;51.062;5.804;2023-07-29T10:52:50;26.81;102.99
66726;HTU21D;53638;51.062;5.804;2023-07-29T10:55:26;26.56;103.77
66726;HTU21D;53638;51.062;5.804;2023-07-29T10:58:05;26.53;109.20
66726;HTU21D;53638;51.062;5.804;2023-07-29T11:00:32;26.69;108.72
66726;HTU21D;53638;51.062;5.804;2023-07-29T11:03:02;26.80;107.51
66726;HTU21D;53638;51.062;5.804;2023-07-29T11:05:45;26.85;108.90
66726;HTU21D;53638;51.062;5.804;2023-07-29T11:08:22;27.16;105.05
66726;HTU21D;53638;51.062;5.804;2023-07-29T11:13:27;28.04;98.23
66726;HTU21D;53638;51.062;5.804;2023-07-29T11:16:01;27.97;96.93
66726;HTU21D;53638;51.062;5.804;2023-07-29T11:18:29;27.38;95.85
66726;HTU21D;53638;51.062;5.804;2023-07-29T11:20:57;26.77;101.99
66726;HTU21D;53638;51.062;5.804;2023-07-29T11:23:32;26.49;102.16
66726;HTU21D;53638;51.062;5.804;2023-07-29T11:25:59;26.20;105.79
66726;HTU21D;53638;51.062;5.804;2023-07-29T11:28:26;26.05;107.74
66726;HTU21D;53638;51.062;5.804;2023-07-29T11:30:55;25.94;109.16
66726;HTU21D;53638;51.062;5.804;2023-07-29T11:33:24;25.89;109.52
66726;HTU21D;53638;51.062;5.804;2023-07-29T11:35:50;25.97;107.06
66726;HTU21D;53638;51.062;5.804;2023-07-29T11:38:18;26.24;107.83
66726;HTU21D;53638;51.062;5.804;2023-07-29T11:40:54;26.37;105.84
66726;HTU21D;53638;51.062;5.804;2023-07-29T11:43:20;26.04;109.04
66726;HTU21D;53638;51.062;5.804;2023-07-29T11:45:46;25.86;110.74
66726;HTU21D;53638;51.062;5.804;2023-07-29T11:48:12;25.59;109.53
66726;HTU21D;53638;51.062;5.804;2023-07-29T11:50:38;25.50;112.19
66726;HTU21D;53638;51.062;5.804;2023-07-29T11:53:05;25.45;113.51
66726;HTU21D;53638;51.062;5.804;2023-07-29T11:55:31;25.45;117.58
66726;HTU21D;53638;51.062;5.804;2023-07-29T11:58:01;25.52;113.76
66726;HTU21D;53638;51.062;5.804;2023-07-29T12:00:27;25.28;116.89
66726;HTU21D;53638;51.062;5.804;2023-07-29T12:02:54;25.00;118.99
66726;HTU21D;53638;51.062;5.804;2023-07-29T12:05:22;24.92;118.99
66726;HTU21D;53638;51.062;5.804;2023-07-29T12:07:49;24.97;118.99
66726;HTU21D;53638;51.062;5.804;2023-07-29T12:10:15;25.06;118.99
66726;HTU21D;53638;51.062;5.804;2023-07-29T12:12:47;25.09;118.99
66726;HTU21D;53638;51.062;5.804;2023-07-29T12:15:22;25.00;118.99
66726;HTU21D;53638;51.062;5.804;2023-07-29T12:17:52;24.98;118.99
66726;HTU21D;53638;51.062;5.804;2023-07-29T12:20:20;24.90;118.99
66726;HTU21D;53638;51.062;5.804;2023-07-29T12:22:51;24.94;118.99
66726;HTU21D;53638;51.062;5.804;2023-07-29T12:25:18;25.34;118.99
66726;HTU21D;53638;51.062;5.804;2023-07-29T12:28:08;26.09;118.99
66726;HTU21D;53638;51.062;5.804;2023-07-29T12:30:34;26.15;118.99
66726;HTU21D;53638;51.062;5.804;2023-07-29T12:33:00;25.92;118.99
66726;HTU21D;53638;51.062;5.804;2023-07-29T12:35:35;25.63;118.99
66726;HTU21D;53638;51.062;5.804;2023-07-29T12:38:01;25.39;118.99
66726;HTU21D;53638;51.062;5.804;2023-07-29T12:40:27;25.18;118.99
66726;HTU21D;53638;51.062;5.804;2023-07-29T12:42:53;24.89;118.99
66726;HTU21D;53638;51.062;5.804;2023-07-29T12:45:19;24.68;118.99
66726;HTU21D;53638;51.062;5.804;2023-07-29T12:47:48;24.68;118.99
66726;HTU21D;53638;51.062;5.804;2023-07-29T12:50:14;24.76;118.99
66726;HTU21D;53638;51.062;5.804;2023-07-29T12:52:40;24.80;118.99
66726;HTU21D;53638;51.062;5.804;2023-07-29T12:55:06;24.79;118.99
66726;HTU21D;53638;51.062;5.804;2023-07-29T12:57:35;24.73;118.99
66726;HTU21D;53638;51.062;5.804;2023-07-29T13:00:02;24.71;118.99
66726;HTU21D;53638;51.062;5.804;2023-07-29T13:02:29;24.71;118.99
66726;HTU21D;53638;51.062;5.804;2023-07-29T13:04:55;24.63;118.99
66726;HTU21D;53638;51.062;5.804;2023-07-29T13:07:21;24.33;118.99
66726;HTU21D;53638;51.062;5.804;2023-07-29T13:09:47;24.02;118.99
66726;HTU21D;53638;51.062;5.804;2023-07-29T13:12:13;23.69;118.99
66726;HTU21D;53638;51.062;5.804;2023-07-29T13:14:39;23.51;118.99
66726;HTU21D;53638;51.062;5.804;2023-07-29T13:17:05;23.29;118.99
66726;HTU21D;53638;51.062;5.804;2023-07-29T13:19:31;23.52;118.99
66726;HTU21D;53638;51.062;5.804;2023-07-29T13:21:57;24.54;118.99
66726;HTU21D;53638;51.062;5.804;2023-07-29T13:24:22;25.61;118.99
66726;HTU21D;53638;51.062;5.804;2023-07-29T13:26:48;27.76;118.99
66726;HTU21D;53638;51.062;5.804;2023-07-29T13:29:14;29.74;118.99
66726;HTU21D;53638;51.062;5.804;2023-07-29T13:31:40;31.01;113.00
66726;HTU21D;53638;51.062;5.804;2023-07-29T13:34:06;31.73;102.33
66726;HTU21D;53638;51.062;5.804;2023-07-29T13:36:32;31.33;98.59
66726;HTU21D;53638;51.062;5.804;2023-07-29T13:38:58;30.06;101.50
66726;HTU21D;53638;51.062;5.804;2023-07-29T13:41:24;28.78;109.51
66726;HTU21D;53638;51.062;5.804;2023-07-29T13:43:49;27.69;118.64
66726;HTU21D;53638;51.062;5.804;2023-07-29T13:46:15;26.85;118.99
66726;HTU21D;53638;51.062;5.804;2023-07-29T13:48:41;26.12;118.99
66726;HTU21D;53638;51.062;5.804;2023-07-29T13:51:07;25.32;118.99
66726;HTU21D;53638;51.062;5.804;2023-07-29T13:53:33;24.85;118.99
66726;HTU21D;53638;51.062;5.804;2023-07-29T13:55:59;24.60;118.99
66726;HTU21D;53638;51.062;5.804;2023-07-29T13:58:24;24.34;118.99
66726;HTU21D;53638;51.062;5.804;2023-07-29T14:00:51;24.28;118.99
66726;HTU21D;53638;51.062;5.804;2023-07-29T14:03:17;24.47;118.99
66726;HTU21D;53638;51.062;5.804;2023-07-29T14:05:43;24.70;118.99
66726;HTU21D;53638;51.062;5.804;2023-07-29T14:08:09;24.93;118.99
66726;HTU21D;53638;51.062;5.804;2023-07-29T14:10:35;25.63;118.99
66726;HTU21D;53638;51.062;5.804;2023-07-29T14:13:00;26.89;118.99
66726;HTU21D;53638;51.062;5.804;2023-07-29T14:15:26;26.94;118.99
66726;HTU21D;53638;51.062;5.804;2023-07-29T14:17:54;26.79;118.99
66726;HTU21D;53638;51.062;5.804;2023-07-29T14:20:20;27.05;118.99
66726;HTU21D;53638;51.062;5.804;2023-07-29T14:22:45;28.14;118.99
66726;HTU21D;53638;51.062;5.804;2023-07-29T14:25:11;30.45;110.82
66726;HTU21D;53638;51.062;5.804;2023-07-29T14:27:37;33.49;91.19
66726;HTU21D;53638;51.062;5.804;2023-07-29T14:30:04;35.73;76.63
66726;HTU21D;53638;51.062;5.804;2023-07-29T14:32:31;37.18;70.79
66726;HTU21D;53638;51.062;5.804;2023-07-29T14:34:57;38.34;65.18
66726;HTU21D;53638;51.062;5.804;2023-07-29T14:37:23;38.88;61.60
66726;HTU21D;53638;51.062;5.804;2023-07-29T14:39:49;38.96;59.48
66726;HTU21D;53638;51.062;5.804;2023-07-29T14:42:14;39.26;59.99
66726;HTU21D;53638;51.062;5.804;2023-07-29T14:44:41;40.01;57.74
66726;HTU21D;53638;51.062;5.804;2023-07-29T14:47:08;40.63;56.26
66726;HTU21D;53638;51.062;5.804;2023-07-29T14:49:34;41.05;53.35
66726;HTU21D;53638;51.062;5.804;2023-07-29T14:51:59;40.73;53.69
66726;HTU21D;53638;51.062;5.804;2023-07-29T14:54:25;40.46;54.56
66726;HTU21D;53638;51.062;5.804;2023-07-29T14:56:51;40.56;52.69
66726;HTU21D;53638;51.062;5.804;2023-07-29T14:59:17;41.00;52.06
66726;HTU21D;53638;51.062;5.804;2023-07-29T15:01:43;40.78;50.97
66726;HTU21D;53638;51.062;5.804;2023-07-29T15:04:09;38.34;53.99
66726;HTU21D;53638;51.062;5.804;2023-07-29T15:06:35;35.97;58.78